Flight Track Log - Related Links

Times and Time Zones

All times are in EDT time to prevent confusion due to time zone crossing. See the N319EE flight status page for this flight to view local times or setup timezone preferences in your user account.

Time Position Orientation Groundspeed Altitude Reporting Facility
EDT Latitude Longitude Course Direction KTS MPH feet Rate Location/Type
Tue 08:50:10 AM 43.0794 -77.7006 208° Southwest 181 208 3,200  Level Cleveland Center
Tue 08:50:11 AM 43.0794 -77.7006 208° Southwest 180 207 11,000 2,000 Climbing Cleveland Center
Tue 08:51:13 AM 43.0658 -77.6394 107° East 185 213 5,300 -1,645 Descending Cleveland Center
Tue 08:52:15 AM 43.0483 -77.5667 108° East 197 227 7,600 2,032 Climbing Cleveland Center
Tue 08:53:17 AM 43.0325 -77.4992 108° East 188 216 9,500 1,645 Climbing Cleveland Center
Tue 08:54:19 AM 42.9881 -77.4206 128° Southeast 215 247 11,000 726 Climbing Cleveland Center
Tue 08:55:21 AM 42.9439 -77.3392 127° Southeast 263 303 11,000  Level Cleveland Center
Tue 08:56:24 AM 42.8978 -77.2553 127° Southeast 277 319 11,000  Level Cleveland Center
Tue 08:57:25 AM 42.8547 -77.1714 125° Southeast 273 314 11,000  Level Cleveland Center
Tue 08:58:27 AM 42.8097 -77.0869 126° Southeast 276 318 11,000  Level Cleveland Center
Tue 08:59:29 AM 42.7558 -76.9856 126° Southeast 278 320 11,000 -48 Level Cleveland Center
Tue 09:00:32 AM 42.7106 -76.9017 126° Southeast 276 318 10,900 -48 Descending Cleveland Center
Tue 09:01:34 AM 42.6656 -76.8181 126° Southeast 276 318 10,900  Level Cleveland Center
Tue 09:02:36 AM 42.6206 -76.7350 126° Southeast 274 315 10,900 -61 Level Cleveland Center
Tue 09:03:12 AM 42.5939 -76.6903 129° Southeast 269 310 10,800 -750 Descending New York Center
Tue 09:04:12 AM 42.5464 -76.6017 126° Southeast 274 315 9,700 -900 Descending New York Center
Tue 09:05:12 AM 42.5008 -76.5103 124° Southeast 281 323 9,000 -350 Descending New York Center
Tue 09:06:12 AM 42.4611 -76.4253 122° Southeast 281 323 9,000  Level New York Center
Tue 09:07:12 AM 42.4172 -76.3431 126° Southeast 276 318 9,000 -150 Level New York Center
Tue 09:08:12 AM 42.3775 -76.2581 122° Southeast 276 318 8,700 -1,125 Descending New York Center
Tue 09:08:48 AM 42.3542 -76.2081 122° Southeast 270 311 7,200 -2,327 Descending Cleveland Center
Tue 09:09:50 AM 42.3131 -76.1294 125° Southeast 262 302 4,900 -1,935 Descending Cleveland Center
Tue 09:10:52 AM 42.2878 -76.0789 124° Southeast 212 244 3,200 -968 Descending Cleveland Center
Tue 09:11:54 AM 42.2594 -76.0292 128° Southeast 199 229 2,900 -290 Descending Cleveland Center

Login

Don't have an account? Register now (free) for customized features, flight alerts, and more!